Time;durP1;ratioP1;P1;durP2;ratioP2;P2;SDS_P1;SDS_P2;PMS_P1;PMS_P2;Temp;Humidity;BMP_temperature;BMP_pressure;BME280_temperature;BME280_humidity;BME280_pressure;Samples;Min_cycle;Max_cycle;Signal;HPM_P1;HPM_P2
2023/02/22 05:06:41;;;;;;;;;24.50;20.50;;;;;;;;6471582;31;9091;-55
2023/02/22 05:12:43;;;;;;;;;33.50;29.50;;;;;;;;6491012;39;8917;-58
2023/02/22 05:18:45;;;;;;;;;27.25;25.25;;;;;;;;6490049;39;8880;-58
2023/02/22 05:24:47;;;;;;;;;25.50;21.50;;;;;;;;6490770;39;8864;-58
2023/02/22 05:30:50;;;;;;;;;34.25;29.00;;;;;;;;6489081;31;8908;-58
2023/02/22 05:36:52;;;;;;;;;32.25;27.00;;;;;;;;6488385;39;8916;-57
2023/02/22 05:42:55;;;;;;;;;30.75;28.75;;;;;;;;6490353;39;8951;-59
2023/02/22 05:48:59;;;;;;;;;30.25;29.00;;;;;;;;6490323;39;8866;-59
2023/02/22 05:55:01;;;;;;;;;34.25;33.25;;;;;;;;6488687;39;8851;-59
2023/02/22 06:01:03;;;;;;;;;51.00;39.75;;;;;;;;6488354;46;8848;-58
2023/02/22 06:07:05;;;;;;;;;47.75;43.25;;;;;;;;6489512;36;8959;-59
2023/02/22 06:13:11;;;;;;;;;52.00;44.75;;;;;;;;6488041;39;8873;-59
2023/02/22 06:19:16;;;;;;;;;50.00;42.50;;;;;;;;6487097;46;8915;-59
2023/02/22 06:25:23;;;;;;;;;47.75;45.00;;;;;;;;6488471;46;8926;-59
2023/02/22 06:31:25;;;;;;;;;63.25;50.00;;;;;;;;6488471;31;8872;-56
2023/02/22 06:37:29;;;;;;;;;51.00;47.25;;;;;;;;6488093;39;8866;-59
2023/02/22 06:43:31;;;;;;;;;63.00;51.00;;;;;;;;6487348;31;8944;-59
2023/02/22 06:49:33;;;;;;;;;55.25;47.50;;;;;;;;6485190;47;8933;-58
2023/02/22 06:55:35;;;;;;;;;57.00;46.25;;;;;;;;6306416;47;10001223;-61
2023/02/22 07:01:40;;;;;;;;;44.75;38.75;;;;;;;;6488271;39;8881;-59
2023/02/22 07:07:43;;;;;;;;;30.00;22.25;;;;;;;;6487873;39;8953;-59
2023/02/22 07:13:47;;;;;;;;;62.25;49.50;;;;;;;;6487999;39;8917;-59
2023/02/22 07:19:50;;;;;;;;;52.25;44.00;;;;;;;;6487480;39;8946;-58
2023/02/22 07:25:54;;;;;;;;;54.00;44.00;;;;;;;;6489813;31;8954;-60
2023/02/22 07:31:56;;;;;;;;;49.00;42.25;;;;;;;;6487807;31;8897;-58
2023/02/22 07:37:58;;;;;;;;;58.75;47.75;;;;;;;;6486950;39;8917;-58
2023/02/22 07:44:01;;;;;;;;;48.00;42.75;;;;;;;;6487616;31;8936;-58
2023/02/22 07:50:06;;;;;;;;;44.50;38.75;;;;;;;;6486957;31;8961;-59
2023/02/22 07:56:08;;;;;;;;;39.50;38.00;;;;;;;;6487189;39;8909;-59
2023/02/22 08:02:16;;;;;;;;;42.50;39.75;;;;;;;;6486091;31;8992;-61
2023/02/22 08:08:20;;;;;;;;;42.00;34.75;;;;;;;;6487435;39;9692;-61
2023/02/22 08:14:22;;;;;;;;;38.00;34.75;;;;;;;;6487416;39;9984;-61
2023/02/22 08:20:25;;;;;;;;;57.00;45.50;;;;;;;;6486696;39;9064;-59
2023/02/22 08:26:30;;;;;;;;;39.25;37.75;;;;;;;;6482644;31;8933;-62
2023/02/22 08:32:42;;;;;;;;;32.00;28.50;;;;;;;;6484985;39;8917;-60
2023/02/22 08:38:53;;;;;;;;;35.50;32.75;;;;;;;;6482012;46;8938;-60
2023/02/22 08:45:12;;;;;;;;;34.50;30.75;;;;;;;;6037653;36;10002043;-63
2023/02/22 08:51:17;;;;;;;;;41.25;38.00;;;;;;;;6478955;39;9544;-60
2023/02/22 08:57:20;;;;;;;;;37.00;35.25;;;;;;;;6478536;39;8951;-64
2023/02/22 09:03:22;;;;;;;;;39.75;34.50;;;;;;;;6479539;31;8991;-60
2023/02/22 09:09:26;;;;;;;;;32.75;31.25;;;;;;;;6463896;39;9040;-59
2023/02/22 09:15:44;;;;;;;;;38.00;35.50;;;;;;;;6477423;39;9723;-58
2023/02/22 09:22:11;;;;;;;;;45.00;38.50;;;;;;;;6482578;39;9659;-60
2023/02/22 09:28:23;;;;;;;;;44.75;41.50;;;;;;;;6484005;39;8953;-62
2023/02/22 09:34:34;;;;;;;;;42.50;39.50;;;;;;;;6482481;39;9062;-60
2023/02/22 09:41:18;;;;;;;;;41.75;39.50;;;;;;;;6482271;46;8976;-60
2023/02/22 09:47:55;;;;;;;;;43.50;40.50;;;;;;;;6484149;39;8948;-59
2023/02/22 09:54:23;;;;;;;;;47.00;40.25;;;;;;;;6483338;46;8981;-59
2023/02/22 10:00:42;;;;;;;;;51.50;43.00;;;;;;;;6482928;39;8910;-58
2023/02/22 10:07:18;;;;;;;;;43.50;37.75;;;;;;;;6486357;36;9006;-58
2023/02/22 10:13:40;;;;;;;;;31.75;28.25;;;;;;;;6485214;39;8974;-58
2023/02/22 10:20:18;;;;;;;;;41.75;38.00;;;;;;;;6484504;39;9732;-60
2023/02/22 10:26:32;;;;;;;;;39.25;37.25;;;;;;;;6482207;39;8929;-60
2023/02/22 10:33:11;;;;;;;;;39.25;35.00;;;;;;;;6482726;31;8951;-60
2023/02/22 10:39:38;;;;;;;;;46.75;40.00;;;;;;;;6484742;39;8894;-59
2023/02/22 10:46:03;;;;;;;;;50.75;42.75;;;;;;;;6483824;39;9055;-59
2023/02/22 10:52:33;;;;;;;;;59.50;48.25;;;;;;;;6482679;39;8923;-59
2023/02/22 10:58:54;;;;;;;;;41.25;37.00;;;;;;;;6484764;31;9051;-59
2023/02/22 11:05:30;;;;;;;;;41.25;38.50;;;;;;;;6482607;39;8968;-59
2023/02/22 11:11:44;;;;;;;;;33.50;33.50;;;;;;;;6483128;31;9073;-60
2023/02/22 11:17:57;;;;;;;;;41.00;36.75;;;;;;;;6483173;47;8912;-58
2023/02/22 11:24:53;;;;;;;;;43.25;38.75;;;;;;;;6482911;47;8983;-58
2023/02/22 11:31:12;;;;;;;;;48.25;43.00;;;;;;;;6485328;39;8946;-60
2023/02/22 11:37:54;;;;;;;;;40.25;37.00;;;;;;;;6484186;39;8949;-59
2023/02/22 11:44:42;;;;;;;;;34.00;31.67;;;;;;;;6481893;47;8982;-60
2023/02/22 11:51:41;;;;;;;;;39.00;36.00;;;;;;;;6483049;47;8924;-59
2023/02/22 11:58:19;;;;;;;;;33.33;28.33;;;;;;;;6482121;47;8925;-60
2023/02/22 12:05:07;;;;;;;;;30.33;26.00;;;;;;;;6481282;47;9024;-59
2023/02/22 12:11:46;;;;;;;;;35.00;32.33;;;;;;;;6481741;46;8968;-60
2023/02/22 12:18:34;;;;;;;;;27.33;24.33;;;;;;;;6483460;31;9038;-60
2023/02/22 12:24:48;;;;;;;;;32.67;29.67;;;;;;;;6487391;39;8952;-63
2023/02/22 12:31:28;;;;;;;;;36.33;35.67;;;;;;;;6489982;39;8884;-61
2023/02/22 12:37:49;;;;;;;;;25.67;24.00;;;;;;;;6490022;46;8910;-61
2023/02/22 12:44:03;;;;;;;;;31.25;30.00;;;;;;;;6488711;39;8958;-63
2023/02/22 12:50:35;;;;;;;;;42.00;37.25;;;;;;;;6491004;39;8961;-62
2023/02/22 12:56:43;;;;;;;;;33.67;30.33;;;;;;;;6489668;46;9066;-58
2023/02/22 13:02:56;;;;;;;;;49.00;40.00;;;;;;;;6488701;39;9029;-62
2023/02/22 13:09:40;;;;;;;;;29.33;29.00;;;;;;;;6487281;39;8943;-64
2023/02/22 13:15:58;;;;;;;;;41.00;37.25;;;;;;;;6487984;46;8954;-58
2023/02/22 13:22:22;;;;;;;;;43.25;39.50;;;;;;;;6485887;39;8966;-61
2023/02/22 13:28:43;;;;;;;;;37.25;35.50;;;;;;;;6484363;39;9043;-62
2023/02/22 13:35:28;;;;;;;;;30.67;30.67;;;;;;;;6487176;39;9640;-59
2023/02/22 13:41:42;;;;;;;;;41.75;37.75;;;;;;;;6490626;39;8907;-60
2023/02/22 13:47:58;;;;;;;;;35.00;30.75;;;;;;;;6489443;39;8933;-60
2023/02/22 13:54:09;;;;;;;;;30.33;30.33;;;;;;;;6488115;39;8903;-59
2023/02/22 14:00:14;;;;;;;;;73.50;59.75;;;;;;;;6490286;31;8858;-60
2023/02/22 14:06:40;;;;;;;;;37.50;34.50;;;;;;;;6487337;39;8930;-61
2023/02/22 14:12:48;;;;;;;;;34.50;34.25;;;;;;;;6487677;31;9057;-58
2023/02/22 14:19:22;;;;;;;;;28.25;27.00;;;;;;;;6485665;31;9052;-60
2023/02/22 14:25:40;;;;;;;;;23.67;20.33;;;;;;;;6486539;31;9516;-59
2023/02/22 14:31:51;;;;;;;;;28.00;25.75;;;;;;;;6486400;39;8951;-58
2023/02/22 14:37:57;;;;;;;;;24.50;24.50;;;;;;;;6484119;39;8918;-58
2023/02/22 14:44:03;;;;;;;;;24.75;19.50;;;;;;;;6485043;39;8919;-59
2023/02/22 14:50:14;;;;;;;;;28.25;26.50;;;;;;;;4956786;36;10001614;-60
2023/02/22 14:56:40;;;;;;;;;21.00;16.50;;;;;;;;6487689;39;8934;-59
2023/02/22 15:02:55;;;;;;;;;30.75;29.50;;;;;;;;6487207;39;9635;-58
2023/02/22 15:09:09;;;;;;;;;29.50;25.50;;;;;;;;6486538;31;8902;-58
2023/02/22 15:15:22;;;;;;;;;29.50;27.00;;;;;;;;6486918;39;8870;-60
2023/02/22 15:21:51;;;;;;;;;28.00;28.00;;;;;;;;6484892;39;8916;-59
2023/02/22 15:28:08;;;;;;;;;34.25;31.50;;;;;;;;6485598;31;8982;-62
2023/02/22 15:34:36;;;;;;;;;29.50;26.25;;;;;;;;6484806;39;9041;-59
2023/02/22 15:40:49;;;;;;;;;23.00;20.50;;;;;;;;6485786;31;8881;-59
2023/02/22 15:47:31;;;;;;;;;30.75;28.25;;;;;;;;6486542;39;8950;-59
2023/02/22 15:53:47;;;;;;;;;28.25;25.00;;;;;;;;6487119;31;8917;-59
2023/02/22 15:59:56;;;;;;;;;29.00;28.25;;;;;;;;6487590;31;9040;-59
2023/02/22 16:06:36;;;;;;;;;34.50;30.50;;;;;;;;6483849;39;8927;-60
2023/02/22 16:13:09;;;;;;;;;29.75;28.75;;;;;;;;6485135;31;8949;-59
2023/02/22 16:19:41;;;;;;;;;40.25;34.75;;;;;;;;6484979;31;8957;-59
2023/02/22 16:26:34;;;;;;;;;32.75;28.00;;;;;;;;6484272;39;9071;-59
2023/02/22 16:33:05;;;;;;;;;31.25;27.50;;;;;;;;6485320;31;8887;-59
2023/02/22 16:39:34;;;;;;;;;27.00;24.00;;;;;;;;6483951;31;8893;-59
2023/02/22 16:46:02;;;;;;;;;26.50;25.00;;;;;;;;6487185;39;9603;-59
2023/02/22 16:52:11;;;;;;;;;29.00;25.00;;;;;;;;6486550;46;8882;-57
2023/02/22 16:58:20;;;;;;;;;24.00;23.50;;;;;;;;6487429;31;9750;-60
2023/02/22 17:04:50;;;;;;;;;22.50;20.50;;;;;;;;6487065;39;9008;-58
2023/02/22 17:11:05;;;;;;;;;25.25;20.75;;;;;;;;6486570;39;8909;-59
2023/02/22 17:17:13;;;;;;;;;28.75;25.50;;;;;;;;6486987;39;8942;-59
2023/02/22 17:23:38;;;;;;;;;22.75;21.75;;;;;;;;6486456;46;8977;-59
2023/02/22 17:30:03;;;;;;;;;29.00;26.00;;;;;;;;6486735;39;8965;-58
2023/02/22 17:36:17;;;;;;;;;27.50;27.50;;;;;;;;6486931;31;9100;-58
2023/02/22 17:42:26;;;;;;;;;25.50;23.00;;;;;;;;6486052;31;9029;-59
2023/02/22 17:48:54;;;;;;;;;27.75;22.75;;;;;;;;6487187;46;8897;-59
2023/02/22 17:55:13;;;;;;;;;27.00;23.00;;;;;;;;6487541;46;8874;-60
2023/02/22 18:01:32;;;;;;;;;28.25;25.25;;;;;;;;6486656;46;8961;-58
2023/02/22 18:07:42;;;;;;;;;24.25;23.50;;;;;;;;6486554;39;8968;-60
2023/02/22 18:13:51;;;;;;;;;31.25;28.25;;;;;;;;6486509;46;8951;-59
2023/02/22 18:20:42;;;;;;;;;26.25;24.00;;;;;;;;6488345;31;8901;-60
2023/02/22 18:27:10;;;;;;;;;25.75;24.50;;;;;;;;6486863;36;8918;-60
2023/02/22 18:33:26;;;;;;;;;27.75;21.50;;;;;;;;6487403;39;9006;-59
2023/02/22 18:40:09;;;;;;;;;24.50;20.00;;;;;;;;6486539;31;8887;-59
